sensor_id;sensor_type;location;lat;lon;timestamp;pressure;altitude;pressure_sealevel;temperature;humidity
37298;BME280;30517;51.932;4.278;2023-02-13T00:00:42;103807.63;;;9.70;66.11
37298;BME280;30517;51.932;4.278;2023-02-13T00:03:23;103813.72;;;9.69;66.26
37298;BME280;30517;51.932;4.278;2023-02-13T00:06:04;103804.78;;;9.65;66.18
37298;BME280;30517;51.932;4.278;2023-02-13T00:08:45;103802.22;;;9.67;66.74
37298;BME280;30517;51.932;4.278;2023-02-13T00:11:26;103803.88;;;9.65;66.71
37298;BME280;30517;51.932;4.278;2023-02-13T00:14:07;103721.69;;;9.18;66.27
37298;BME280;30517;51.932;4.278;2023-02-13T00:16:48;103800.53;;;9.69;66.30
37298;BME280;30517;51.932;4.278;2023-02-13T00:19:28;103793.03;;;9.59;66.45
37298;BME280;30517;51.932;4.278;2023-02-13T00:22:09;103805.81;;;9.69;66.59
37298;BME280;30517;51.932;4.278;2023-02-13T00:24:50;103801.38;;;9.68;66.28
37298;BME280;30517;51.932;4.278;2023-02-13T00:27:31;103803.25;;;9.70;66.20
37298;BME280;30517;51.932;4.278;2023-02-13T00:30:12;103802.38;;;9.70;66.32
37298;BME280;30517;51.932;4.278;2023-02-13T00:32:53;103797.84;;;9.67;66.21
37298;BME280;30517;51.932;4.278;2023-02-13T00:35:34;103801.47;;;9.69;66.57
37298;BME280;30517;51.932;4.278;2023-02-13T00:38:15;103803.16;;;9.69;66.04
37298;BME280;30517;51.932;4.278;2023-02-13T00:40:56;103797.00;;;9.68;66.44
37298;BME280;30517;51.932;4.278;2023-02-13T00:43:37;103763.53;;;9.48;66.07
37298;BME280;30517;51.932;4.278;2023-02-13T00:46:20;103796.19;;;9.69;66.04
37298;BME280;30517;51.932;4.278;2023-02-13T00:49:01;103789.09;;;9.68;66.20
37298;BME280;30517;51.932;4.278;2023-02-13T00:51:42;103798.84;;;9.69;66.16
37298;BME280;30517;51.932;4.278;2023-02-13T00:54:23;103791.72;;;9.68;66.23
37298;BME280;30517;51.932;4.278;2023-02-13T00:57:03;103790.75;;;9.66;66.51
37298;BME280;30517;51.932;4.278;2023-02-13T00:59:44;103770.22;;;9.59;66.22
37298;BME280;30517;51.932;4.278;2023-02-13T01:02:25;103772.91;;;9.61;66.16
37298;BME280;30517;51.932;4.278;2023-02-13T01:05:06;103791.72;;;9.68;66.39
37298;BME280;30517;51.932;4.278;2023-02-13T01:07:49;103787.31;;;9.67;66.52
37298;BME280;30517;51.932;4.278;2023-02-13T01:10:31;103778.50;;;9.67;66.62
37298;BME280;30517;51.932;4.278;2023-02-13T01:13:13;103766.75;;;9.60;66.02
37298;BME280;30517;51.932;4.278;2023-02-13T01:15:54;103762.16;;;9.56;66.61
37298;BME280;30517;51.932;4.278;2023-02-13T01:18:35;103783.78;;;9.67;66.22
37298;BME280;30517;51.932;4.278;2023-02-13T01:21:17;103787.22;;;9.66;66.45
37298;BME280;30517;51.932;4.278;2023-02-13T01:24:02;103761.09;;;9.52;66.26
37298;BME280;30517;51.932;4.278;2023-02-13T01:26:43;103770.22;;;9.59;66.24
37298;BME280;30517;51.932;4.278;2023-02-13T01:29:24;103759.28;;;9.51;66.65
37298;BME280;30517;51.932;4.278;2023-02-13T01:32:04;103767.59;;;9.59;66.25
37298;BME280;30517;51.932;4.278;2023-02-13T01:34:45;103768.63;;;9.63;66.22
37298;BME280;30517;51.932;4.278;2023-02-13T01:37:26;103750.13;;;9.43;66.78
37298;BME280;30517;51.932;4.278;2023-02-13T01:40:10;103776.28;;;9.58;66.70
37298;BME280;30517;51.932;4.278;2023-02-13T01:42:52;103773.75;;;9.60;66.80
37298;BME280;30517;51.932;4.278;2023-02-13T01:45:33;103744.09;;;9.46;66.70
37298;BME280;30517;51.932;4.278;2023-02-13T01:48:18;103778.13;;;9.59;66.44
37298;BME280;30517;51.932;4.278;2023-02-13T01:51:04;103776.28;;;9.58;66.80
37298;BME280;30517;51.932;4.278;2023-02-13T01:53:54;103776.28;;;9.58;66.88
37298;BME280;30517;51.932;4.278;2023-02-13T01:56:42;103765.41;;;9.50;66.29
37298;BME280;30517;51.932;4.278;2023-02-13T01:59:28;103774.72;;;9.44;66.64
37298;BME280;30517;51.932;4.278;2023-02-13T02:02:12;103778.63;;;9.52;66.96
37298;BME280;30517;51.932;4.278;2023-02-13T02:04:54;103737.91;;;9.27;66.79
37298;BME280;30517;51.932;4.278;2023-02-13T02:07:37;103777.66;;;9.50;67.11
37298;BME280;30517;51.932;4.278;2023-02-13T02:10:19;103768.78;;;9.48;66.61
37298;BME280;30517;51.932;4.278;2023-02-13T02:13:06;103778.63;;;9.52;66.83
37298;BME280;30517;51.932;4.278;2023-02-13T02:15:48;103757.94;;;9.42;67.00
37298;BME280;30517;51.932;4.278;2023-02-13T02:18:29;103772.38;;;9.50;66.86
37298;BME280;30517;51.932;4.278;2023-02-13T02:21:55;103778.41;;;9.47;66.58
37298;BME280;30517;51.932;4.278;2023-02-13T02:25:07;103763.53;;;9.48;66.86
37298;BME280;30517;51.932;4.278;2023-02-13T02:28:26;103766.97;;;9.47;66.93
37298;BME280;30517;51.932;4.278;2023-02-13T02:40:27;103660.81;;;8.94;66.92
37298;BME280;30517;51.932;4.278;2023-02-13T02:43:43;103755.31;;;9.42;67.01
37298;BME280;30517;51.932;4.278;2023-02-13T02:46:36;103755.31;;;9.42;67.23
37298;BME280;30517;51.932;4.278;2023-02-13T02:49:18;103742.72;;;9.36;67.25
37298;BME280;30517;51.932;4.278;2023-02-13T02:52:19;103747.41;;;9.42;66.89
37298;BME280;30517;51.932;4.278;2023-02-13T02:55:15;103735.44;;;9.30;67.05
37298;BME280;30517;51.932;4.278;2023-02-13T02:58:07;103746.44;;;9.40;67.18
37298;BME280;30517;51.932;4.278;2023-02-13T03:01:13;103668.75;;;8.96;66.89
37298;BME280;30517;51.932;4.278;2023-02-13T03:04:25;103747.25;;;9.39;66.74
37298;BME280;30517;51.932;4.278;2023-02-13T03:07:27;103740.25;;;9.39;66.92
37298;BME280;30517;51.932;4.278;2023-02-13T03:10:16;103742.81;;;9.38;66.88
37298;BME280;30517;51.932;4.278;2023-02-13T03:13:38;103734.91;;;9.38;66.71
37298;BME280;30517;51.932;4.278;2023-02-13T03:16:23;103723.25;;;9.33;67.20
37298;BME280;30517;51.932;4.278;2023-02-13T03:19:50;103716.75;;;9.26;67.08
37298;BME280;30517;51.932;4.278;2023-02-13T03:23:07;103739.28;;;9.37;66.86
37298;BME280;30517;51.932;4.278;2023-02-13T03:29:43;103730.41;;;9.35;67.15
37298;BME280;30517;51.932;4.278;2023-02-13T03:35:40;103699.84;;;9.21;67.61
37298;BME280;30517;51.932;4.278;2023-02-13T03:38:52;103706.16;;;9.24;67.62
37298;BME280;30517;51.932;4.278;2023-02-13T03:41:49;103726.78;;;9.33;67.14
37298;BME280;30517;51.932;4.278;2023-02-13T03:44:59;103703.44;;;9.23;66.80
37298;BME280;30517;51.932;4.278;2023-02-13T03:48:01;103721.59;;;9.35;67.00
37298;BME280;30517;51.932;4.278;2023-02-13T03:50:48;103717.00;;;9.30;67.05
37298;BME280;30517;51.932;4.278;2023-02-13T03:53:32;103705.88;;;9.18;67.26
37298;BME280;30517;51.932;4.278;2023-02-13T03:56:15;103734.59;;;9.31;67.33
37298;BME280;30517;51.932;4.278;2023-02-13T03:59:25;103718.66;;;9.28;67.24
37298;BME280;30517;51.932;4.278;2023-02-13T04:02:13;103716.84;;;9.27;67.29
37298;BME280;30517;51.932;4.278;2023-02-13T04:05:07;103695.34;;;9.18;66.88
37298;BME280;30517;51.932;4.278;2023-02-13T04:07:50;103719.63;;;9.30;66.84
37298;BME280;30517;51.932;4.278;2023-02-13T04:10:33;103714.22;;;9.27;67.35
37298;BME280;30517;51.932;4.278;2023-02-13T04:13:25;103698.63;;;9.14;67.38
37298;BME280;30517;51.932;4.278;2023-02-13T04:16:41;103702.63;;;9.06;67.18
37298;BME280;30517;51.932;4.278;2023-02-13T04:19:24;103722.13;;;9.27;67.21
37298;BME280;30517;51.932;4.278;2023-02-13T04:22:06;103674.25;;;9.00;67.29
37298;BME280;30517;51.932;4.278;2023-02-13T04:24:47;103703.00;;;9.14;67.12
37298;BME280;30517;51.932;4.278;2023-02-13T04:27:28;103730.84;;;9.26;67.08
37298;BME280;30517;51.932;4.278;2023-02-13T04:30:09;103723.75;;;9.25;67.17
37298;BME280;30517;51.932;4.278;2023-02-13T04:32:50;103735.19;;;9.26;67.58
37298;BME280;30517;51.932;4.278;2023-02-13T04:35:31;103730.69;;;9.23;67.23
37298;BME280;30517;51.932;4.278;2023-02-13T04:38:12;103723.31;;;9.16;67.02
37298;BME280;30517;51.932;4.278;2023-02-13T04:40:53;103721.88;;;9.23;67.24
37298;BME280;30517;51.932;4.278;2023-02-13T04:43:34;103721.81;;;9.21;67.66
37298;BME280;30517;51.932;4.278;2023-02-13T04:46:15;103714.72;;;9.20;67.20
37298;BME280;30517;51.932;4.278;2023-02-13T04:48:55;103705.69;;;9.15;67.48
37298;BME280;30517;51.932;4.278;2023-02-13T04:51:36;103725.50;;;9.25;67.04
37298;BME280;30517;51.932;4.278;2023-02-13T04:54:17;103717.50;;;9.23;67.17
37298;BME280;30517;51.932;4.278;2023-02-13T04:56:58;103713.94;;;9.21;67.10
37298;BME280;30517;51.932;4.278;2023-02-13T04:59:38;103708.50;;;9.18;67.72
37298;BME280;30517;51.932;4.278;2023-02-13T05:02:19;103708.56;;;9.20;67.38
37298;BME280;30517;51.932;4.278;2023-02-13T05:05:00;103707.66;;;9.19;67.40
37298;BME280;30517;51.932;4.278;2023-02-13T05:07:41;103707.66;;;9.19;67.76
37298;BME280;30517;51.932;4.278;2023-02-13T05:10:22;103701.97;;;9.10;67.32
37298;BME280;30517;51.932;4.278;2023-02-13T05:13:03;103685.84;;;9.04;67.19
37298;BME280;30517;51.932;4.278;2023-02-13T05:15:43;103711.16;;;9.18;67.17
37298;BME280;30517;51.932;4.278;2023-02-13T05:18:24;103687.66;;;9.05;67.27
37298;BME280;30517;51.932;4.278;2023-02-13T05:21:05;103712.78;;;9.16;67.43
37298;BME280;30517;51.932;4.278;2023-02-13T05:24:05;103711.28;;;9.21;67.50
37298;BME280;30517;51.932;4.278;2023-02-13T05:26:45;103711.06;;;9.35;67.34
37298;BME280;30517;51.932;4.278;2023-02-13T05:29:26;103701.47;;;9.37;66.86
37298;BME280;30517;51.932;4.278;2023-02-13T05:32:07;103711.72;;;9.48;66.40
37298;BME280;30517;51.932;4.278;2023-02-13T05:34:48;103702.97;;;9.49;65.88
37298;BME280;30517;51.932;4.278;2023-02-13T05:37:28;103710.00;;;9.49;66.24
37298;BME280;30517;51.932;4.278;2023-02-13T05:40:10;103700.28;;;9.48;65.97
37298;BME280;30517;51.932;4.278;2023-02-13T05:42:53;103694.03;;;9.46;66.34
37298;BME280;30517;51.932;4.278;2023-02-13T05:45:34;103702.94;;;9.48;66.02
37298;BME280;30517;51.932;4.278;2023-02-13T05:48:18;103688.47;;;9.40;66.26
37298;BME280;30517;51.932;4.278;2023-02-13T05:50:58;103695.69;;;9.44;66.69
37298;BME280;30517;51.932;4.278;2023-02-13T05:53:39;103681.38;;;9.39;66.30
37298;BME280;30517;51.932;4.278;2023-02-13T05:56:20;103687.50;;;9.38;66.07
37298;BME280;30517;51.932;4.278;2023-02-13T05:59:01;103674.09;;;9.33;66.20
37298;BME280;30517;51.932;4.278;2023-02-13T06:01:42;103657.72;;;9.21;66.19
37298;BME280;30517;51.932;4.278;2023-02-13T06:04:23;103668.25;;;9.21;66.29
37298;BME280;30517;51.932;4.278;2023-02-13T06:07:03;103654.72;;;9.13;66.73
37298;BME280;30517;51.932;4.278;2023-02-13T06:09:44;103698.78;;;9.35;66.46
37298;BME280;30517;51.932;4.278;2023-02-13T06:12:27;103691.69;;;9.34;66.94
37298;BME280;30517;51.932;4.278;2023-02-13T06:15:08;103653.72;;;9.11;66.79
37298;BME280;30517;51.932;4.278;2023-02-13T06:17:49;103667.19;;;9.17;66.59
37298;BME280;30517;51.932;4.278;2023-02-13T06:20:30;103699.44;;;9.31;67.03
37298;BME280;30517;51.932;4.278;2023-02-13T06:23:10;103696.69;;;9.28;66.82
37298;BME280;30517;51.932;4.278;2023-02-13T06:25:51;103673.94;;;9.12;66.93
37298;BME280;30517;51.932;4.278;2023-02-13T06:28:32;103680.56;;;9.04;66.84
37298;BME280;30517;51.932;4.278;2023-02-13T06:31:13;103687.81;;;9.08;66.73
37298;BME280;30517;51.932;4.278;2023-02-13T06:33:54;103653.06;;;8.97;67.25
37298;BME280;30517;51.932;4.278;2023-02-13T06:36:35;103702.41;;;9.19;66.91
37298;BME280;30517;51.932;4.278;2023-02-13T06:39:17;103682.41;;;9.05;67.17
37298;BME280;30517;51.932;4.278;2023-02-13T06:41:58;103698.78;;;9.17;67.37
37298;BME280;30517;51.932;4.278;2023-02-13T06:44:39;103679.63;;;9.02;67.04
37298;BME280;30517;51.932;4.278;2023-02-13T06:47:19;103707.59;;;9.18;67.29
37298;BME280;30517;51.932;4.278;2023-02-13T06:50:00;103705.78;;;9.17;67.24
37298;BME280;30517;51.932;4.278;2023-02-13T06:52:46;103706.38;;;9.11;66.62
37298;BME280;30517;51.932;4.278;2023-02-13T06:55:27;103711.56;;;9.09;67.04
37298;BME280;30517;51.932;4.278;2023-02-13T06:58:08;103707.66;;;9.01;67.39
37298;BME280;30517;51.932;4.278;2023-02-13T07:00:50;103720.31;;;9.08;67.31
37298;BME280;30517;51.932;4.278;2023-02-13T07:03:31;103712.84;;;9.00;67.58
37298;BME280;30517;51.932;4.278;2023-02-13T07:06:17;103710.06;;;8.97;67.54
37298;BME280;30517;51.932;4.278;2023-02-13T07:09:00;103728.81;;;9.03;67.21
37298;BME280;30517;51.932;4.278;2023-02-13T07:11:41;103718.03;;;8.98;67.29
37298;BME280;30517;51.932;4.278;2023-02-13T07:14:22;103748.28;;;9.06;67.42
37298;BME280;30517;51.932;4.278;2023-02-13T07:17:03;103721.50;;;8.97;67.75
37298;BME280;30517;51.932;4.278;2023-02-13T07:19:44;103737.53;;;9.02;67.07
37298;BME280;30517;51.932;4.278;2023-02-13T07:22:24;103727.53;;;8.95;67.69
37298;BME280;30517;51.932;4.278;2023-02-13T07:25:05;103737.53;;;9.02;67.28
37298;BME280;30517;51.932;4.278;2023-02-13T07:27:46;103740.97;;;9.01;67.65
37298;BME280;30517;51.932;4.278;2023-02-13T07:30:28;103735.66;;;8.99;67.90
37298;BME280;30517;51.932;4.278;2023-02-13T07:33:09;103714.81;;;8.86;67.66
37298;BME280;30517;51.932;4.278;2023-02-13T07:35:51;103746.09;;;8.98;67.64
37298;BME280;30517;51.932;4.278;2023-02-13T07:38:32;103738.19;;;8.98;67.63
37298;BME280;30517;51.932;4.278;2023-02-13T07:41:13;103719.38;;;8.90;67.82
37298;BME280;30517;51.932;4.278;2023-02-13T07:43:54;103734.66;;;8.97;67.75
37298;BME280;30517;51.932;4.278;2023-02-13T07:46:35;103669.31;;;8.54;67.45
37298;BME280;30517;51.932;4.278;2023-02-13T07:49:15;103725.88;;;8.97;68.10
37298;BME280;30517;51.932;4.278;2023-02-13T07:51:56;103719.38;;;8.90;67.73
37298;BME280;30517;51.932;4.278;2023-02-13T07:54:37;103729.31;;;8.96;67.69
37298;BME280;30517;51.932;4.278;2023-02-13T07:57:26;103746.94;;;8.97;67.79
37298;BME280;30517;51.932;4.278;2023-02-13T08:00:07;103680.25;;;8.62;68.01
37298;BME280;30517;51.932;4.278;2023-02-13T08:02:48;103665.84;;;8.55;67.50
37298;BME280;30517;51.932;4.278;2023-02-13T08:05:30;103741.56;;;8.95;67.68
37298;BME280;30517;51.932;4.278;2023-02-13T08:08:11;103738.03;;;8.95;67.78
37298;BME280;30517;51.932;4.278;2023-02-13T08:10:52;103671.22;;;8.57;67.60
37298;BME280;30517;51.932;4.278;2023-02-13T08:13:53;103710.69;;;8.75;67.93
37298;BME280;30517;51.932;4.278;2023-02-13T08:16:33;103742.41;;;8.94;68.09
37298;BME280;30517;51.932;4.278;2023-02-13T08:19:15;103745.06;;;8.94;67.79
37298;BME280;30517;51.932;4.278;2023-02-13T08:21:56;103680.00;;;8.57;67.60
37298;BME280;30517;51.932;4.278;2023-02-13T08:24:37;103752.00;;;8.94;67.85
37298;BME280;30517;51.932;4.278;2023-02-13T08:27:18;103687.31;;;8.63;67.69
37298;BME280;30517;51.932;4.278;2023-02-13T08:29:59;103645.56;;;8.36;67.97
37298;BME280;30517;51.932;4.278;2023-02-13T08:32:41;103683.53;;;8.58;67.84
37298;BME280;30517;51.932;4.278;2023-02-13T08:35:22;103748.56;;;8.95;67.68
37298;BME280;30517;51.932;4.278;2023-02-13T08:38:05;103688.88;;;8.59;67.83
37298;BME280;30517;51.932;4.278;2023-02-13T08:40:46;103746.97;;;8.80;69.70
37298;BME280;30517;51.932;4.278;2023-02-13T08:43:27;103750.06;;;8.90;69.00
37298;BME280;30517;51.932;4.278;2023-02-13T08:46:08;103748.72;;;8.98;68.36
37298;BME280;30517;51.932;4.278;2023-02-13T08:48:49;103749.63;;;8.98;68.42
37298;BME280;30517;51.932;4.278;2023-02-13T08:51:29;103755.88;;;9.00;68.79
37298;BME280;30517;51.932;4.278;2023-02-13T08:54:10;103742.25;;;8.91;68.36
37298;BME280;30517;51.932;4.278;2023-02-13T08:56:51;103767.91;;;8.95;68.43
37298;BME280;30517;51.932;4.278;2023-02-13T08:59:32;103746.44;;;8.70;69.30
37298;BME280;30517;51.932;4.278;2023-02-13T09:02:13;103763.31;;;8.75;70.32
37298;BME280;30517;51.932;4.278;2023-02-13T09:04:54;103769.59;;;8.77;69.90
37298;BME280;30517;51.932;4.278;2023-02-13T09:07:35;103737.59;;;8.69;69.88
37298;BME280;30517;51.932;4.278;2023-02-13T09:10:16;103752.59;;;8.70;70.19
37298;BME280;30517;51.932;4.278;2023-02-13T09:12:57;103752.59;;;8.88;69.43
37298;BME280;30517;51.932;4.278;2023-02-13T09:15:39;103722.50;;;8.65;69.84
37298;BME280;30517;51.932;4.278;2023-02-13T09:18:20;103731.25;;;8.82;70.13
37298;BME280;30517;51.932;4.278;2023-02-13T09:21:03;103744.16;;;9.12;68.75
37298;BME280;30517;51.932;4.278;2023-02-13T09:23:44;103751.69;;;9.22;68.48
37298;BME280;30517;51.932;4.278;2023-02-13T09:26:25;103762.63;;;9.29;68.09
37298;BME280;30517;51.932;4.278;2023-02-13T09:29:06;103752.13;;;9.31;67.91
37298;BME280;30517;51.932;4.278;2023-02-13T09:31:47;103755.53;;;9.28;68.67
37298;BME280;30517;51.932;4.278;2023-02-13T09:34:28;103765.31;;;9.31;68.26
37298;BME280;30517;51.932;4.278;2023-02-13T09:37:08;103753.88;;;9.30;68.45
37298;BME280;30517;51.932;4.278;2023-02-13T09:39:49;103758.38;;;9.33;68.30
37298;BME280;30517;51.932;4.278;2023-02-13T09:42:32;103737.63;;;9.21;67.70
37298;BME280;30517;51.932;4.278;2023-02-13T09:45:19;103760.13;;;9.33;67.90
37298;BME280;30517;51.932;4.278;2023-02-13T09:48:01;103759.28;;;9.34;67.67
37298;BME280;30517;51.932;4.278;2023-02-13T09:50:42;103732.41;;;9.23;68.06
37298;BME280;30517;51.932;4.278;2023-02-13T09:53:25;103737.78;;;9.24;67.63
37298;BME280;30517;51.932;4.278;2023-02-13T09:56:16;103758.38;;;9.33;67.92
37298;BME280;30517;51.932;4.278;2023-02-13T09:59:07;103752.38;;;9.36;67.95
37298;BME280;30517;51.932;4.278;2023-02-13T10:01:54;103755.38;;;9.25;68.10
37298;BME280;30517;51.932;4.278;2023-02-13T10:11:07;103756.28;;;9.26;68.07
37298;BME280;30517;51.932;4.278;2023-02-13T10:16:51;103748.75;;;9.34;67.63
37298;BME280;30517;51.932;4.278;2023-02-13T10:25:21;103748.16;;;9.39;67.52
37298;BME280;30517;51.932;4.278;2023-02-13T10:33:46;103709.59;;;9.23;67.16
37298;BME280;30517;51.932;4.278;2023-02-13T10:36:39;103737.56;;;9.38;67.29
37298;BME280;30517;51.932;4.278;2023-02-13T10:39:27;103731.59;;;9.42;67.40
37298;BME280;30517;51.932;4.278;2023-02-13T10:42:22;103714.31;;;9.29;67.51
37298;BME280;30517;51.932;4.278;2023-02-13T10:45:18;103736.06;;;9.43;67.43
37298;BME280;30517;51.932;4.278;2023-02-13T10:48:20;103727.31;;;9.44;67.23
37298;BME280;30517;51.932;4.278;2023-02-13T10:51:20;103705.47;;;9.28;67.45
37298;BME280;30517;51.932;4.278;2023-02-13T10:54:46;103728.16;;;9.43;67.60
37298;BME280;30517;51.932;4.278;2023-02-13T10:57:50;103718.50;;;9.43;67.53
37298;BME280;30517;51.932;4.278;2023-02-13T11:00:55;103716.75;;;9.44;67.41
37298;BME280;30517;51.932;4.278;2023-02-13T11:03:38;103729.03;;;9.43;67.68
37298;BME280;30517;51.932;4.278;2023-02-13T11:06:19;103725.56;;;9.44;67.45
37298;BME280;30517;51.932;4.278;2023-02-13T11:08:59;103722.13;;;9.45;67.47
37298;BME280;30517;51.932;4.278;2023-02-13T11:11:41;103714.28;;;9.47;67.16
37298;BME280;30517;51.932;4.278;2023-02-13T11:14:24;103705.25;;;9.42;67.64
37298;BME280;30517;51.932;4.278;2023-02-13T11:17:11;103716.09;;;9.48;67.30
37298;BME280;30517;51.932;4.278;2023-02-13T11:19:59;103710.00;;;9.49;67.00
37298;BME280;30517;51.932;4.278;2023-02-13T11:22:41;103704.56;;;9.46;67.07
37298;BME280;30517;51.932;4.278;2023-02-13T11:25:25;103697.72;;;9.49;67.18
37298;BME280;30517;51.932;4.278;2023-02-13T11:28:15;103702.16;;;9.50;67.16
37298;BME280;30517;51.932;4.278;2023-02-13T11:31:20;103649.97;;;9.24;67.03
37298;BME280;30517;51.932;4.278;2023-02-13T11:37:20;103694.25;;;9.50;66.89
37298;BME280;30517;51.932;4.278;2023-02-13T11:40:30;103689.75;;;9.48;67.20
37298;BME280;30517;51.932;4.278;2023-02-13T11:43:23;103689.06;;;9.52;66.91
37298;BME280;30517;51.932;4.278;2023-02-13T11:46:15;103686.50;;;9.53;67.17
37298;BME280;30517;51.932;4.278;2023-02-13T11:49:05;103679.41;;;9.52;66.85
37298;BME280;30517;51.932;4.278;2023-02-13T11:51:54;103689.13;;;9.53;67.58
37298;BME280;30517;51.932;4.278;2023-02-13T11:54:39;103675.88;;;9.52;67.10
37298;BME280;30517;51.932;4.278;2023-02-13T11:57:32;103673.25;;;9.52;67.37
37298;BME280;30517;51.932;4.278;2023-02-13T12:03:39;103673.19;;;9.50;67.60
37298;BME280;30517;51.932;4.278;2023-02-13T12:06:20;103670.56;;;9.50;67.29
37298;BME280;30517;51.932;4.278;2023-02-13T12:09:01;103673.38;;;9.55;67.06
37298;BME280;30517;51.932;4.278;2023-02-13T12:11:48;103669.00;;;9.56;67.20
37298;BME280;30517;51.932;4.278;2023-02-13T12:14:37;103664.50;;;9.53;67.61
37298;BME280;30517;51.932;4.278;2023-02-13T12:17:22;103656.44;;;9.50;67.43
37298;BME280;30517;51.932;4.278;2023-02-13T12:20:03;103671.22;;;9.46;67.92
37298;BME280;30517;51.932;4.278;2023-02-13T12:23:00;103646.72;;;9.29;68.38
37298;BME280;30517;51.932;4.278;2023-02-13T12:40:36;103643.91;;;9.64;67.53
37298;BME280;30517;51.932;4.278;2023-02-13T12:43:45;103628.59;;;9.55;67.52
37298;BME280;30517;51.932;4.278;2023-02-13T13:04:42;103636.38;;;9.71;67.87
37298;BME280;30517;51.932;4.278;2023-02-13T13:13:16;103623.41;;;9.76;67.73
37298;BME280;30517;51.932;4.278;2023-02-13T13:19:06;103615.34;;;9.73;67.63
37298;BME280;30517;51.932;4.278;2023-02-13T13:21:59;103621.75;;;9.78;67.78
37298;BME280;30517;51.932;4.278;2023-02-13T13:28:16;103598.56;;;9.71;67.46
37298;BME280;30517;51.932;4.278;2023-02-13T13:30:59;103617.59;;;9.83;67.88
37298;BME280;30517;51.932;4.278;2023-02-13T13:33:44;103609.69;;;9.83;67.73
37298;BME280;30517;51.932;4.278;2023-02-13T13:39:30;103598.06;;;9.60;68.45
37298;BME280;30517;51.932;4.278;2023-02-13T13:45:19;103606.56;;;9.72;68.19
37298;BME280;30517;51.932;4.278;2023-02-13T13:51:01;103601.28;;;9.72;68.17
37298;BME280;30517;51.932;4.278;2023-02-13T14:11:39;103585.38;;;9.90;68.48
37298;BME280;30517;51.932;4.278;2023-02-13T14:17:13;103582.06;;;9.94;68.52
37298;BME280;30517;51.932;4.278;2023-02-13T14:19:59;103542.59;;;9.77;68.29
37298;BME280;30517;51.932;4.278;2023-02-13T14:22:40;103573.25;;;9.94;68.10
37298;BME280;30517;51.932;4.278;2023-02-13T14:25:26;103577.81;;;9.98;68.31
37298;BME280;30517;51.932;4.278;2023-02-13T14:28:18;103549.22;;;9.88;68.08
37298;BME280;30517;51.932;4.278;2023-02-13T14:31:06;103570.03;;;10.01;68.35
37298;BME280;30517;51.932;4.278;2023-02-13T14:34:04;103557.56;;;9.97;68.19
37298;BME280;30517;51.932;4.278;2023-02-13T14:37:04;103559.59;;;10.04;68.20
37298;BME280;30517;51.932;4.278;2023-02-13T14:40:09;103565.84;;;10.06;68.00
37298;BME280;30517;51.932;4.278;2023-02-13T14:42:58;103543.47;;;9.96;67.78
37298;BME280;30517;51.932;4.278;2023-02-13T14:49:28;103558.28;;;10.14;67.99
37298;BME280;30517;51.932;4.278;2023-02-13T14:52:17;103554.53;;;10.09;67.90
37298;BME280;30517;51.932;4.278;2023-02-13T14:55:02;103523.84;;;9.90;68.36
37298;BME280;30517;51.932;4.278;2023-02-13T15:03:58;103554.66;;;10.12;67.65
37298;BME280;30517;51.932;4.278;2023-02-13T15:06:45;103547.81;;;10.15;67.25
37298;BME280;30517;51.932;4.278;2023-02-13T15:09:34;103547.84;;;10.17;67.79
37298;BME280;30517;51.932;4.278;2023-02-13T15:15:25;103543.47;;;10.17;68.20
37298;BME280;30517;51.932;4.278;2023-02-13T15:18:10;103530.78;;;10.09;67.98
37298;BME280;30517;51.932;4.278;2023-02-13T15:20:56;103532.66;;;10.11;68.39
37298;BME280;30517;51.932;4.278;2023-02-13T15:23:40;103503.06;;;9.97;68.15
37298;BME280;30517;51.932;4.278;2023-02-13T15:26:23;103538.31;;;10.20;68.02
37298;BME280;30517;51.932;4.278;2023-02-13T15:29:17;103518.50;;;10.09;68.06
37298;BME280;30517;51.932;4.278;2023-02-13T15:31:58;103547.44;;;10.27;68.18
37298;BME280;30517;51.932;4.278;2023-02-13T15:34:47;103168.84;;;8.02;67.57
37298;BME280;30517;51.932;4.278;2023-02-13T15:37:29;103541.53;;;10.33;67.82
37298;BME280;30517;51.932;4.278;2023-02-13T15:40:15;103523.34;;;10.19;67.79
37298;BME280;30517;51.932;4.278;2023-02-13T15:42:57;103529.09;;;10.30;67.54
37298;BME280;30517;51.932;4.278;2023-02-13T15:45:42;103545.69;;;10.49;67.54
37298;BME280;30517;51.932;4.278;2023-02-13T15:48:23;103543.94;;;10.49;67.26
37298;BME280;30517;51.932;4.278;2023-02-13T15:51:04;103546.84;;;10.55;67.28
37298;BME280;30517;51.932;4.278;2023-02-13T15:53:51;103539.88;;;10.57;67.17
37298;BME280;30517;51.932;4.278;2023-02-13T15:56:33;103510.31;;;10.44;66.75
37298;BME280;30517;51.932;4.278;2023-02-13T15:59:15;103533.91;;;10.61;67.01
37298;BME280;30517;51.932;4.278;2023-02-13T16:01:58;103547.34;;;10.68;66.48
37298;BME280;30517;51.932;4.278;2023-02-13T16:04:40;103543.97;;;10.72;66.88
37298;BME280;30517;51.932;4.278;2023-02-13T16:07:22;103549.34;;;10.73;66.54
37298;BME280;30517;51.932;4.278;2023-02-13T16:10:25;103543.16;;;10.73;66.85
37298;BME280;30517;51.932;4.278;2023-02-13T16:13:15;103535.94;;;10.69;66.28
37298;BME280;30517;51.932;4.278;2023-02-13T16:15:58;103540.63;;;10.76;66.42
37298;BME280;30517;51.932;4.278;2023-02-13T16:18:40;103523.00;;;10.75;66.54
37298;BME280;30517;51.932;4.278;2023-02-13T16:21:22;103516.03;;;10.77;66.24
37298;BME280;30517;51.932;4.278;2023-02-13T16:24:06;103524.84;;;10.77;66.36
37298;BME280;30517;51.932;4.278;2023-02-13T16:26:48;103525.69;;;10.76;66.73
37298;BME280;30517;51.932;4.278;2023-02-13T16:29:29;103524.91;;;10.79;66.55
37298;BME280;30517;51.932;4.278;2023-02-13T16:32:19;103524.03;;;10.78;66.11
37298;BME280;30517;51.932;4.278;2023-02-13T16:38:02;103523.25;;;10.81;66.29
37298;BME280;30517;51.932;4.278;2023-02-13T16:40:44;103514.28;;;10.77;66.45
37298;BME280;30517;51.932;4.278;2023-02-13T16:43:33;103509.00;;;10.77;66.69
37298;BME280;30517;51.932;4.278;2023-02-13T16:51:50;103509.84;;;10.76;66.72
37298;BME280;30517;51.932;4.278;2023-02-13T16:55:15;103510.44;;;10.69;66.32
37298;BME280;30517;51.932;4.278;2023-02-13T16:57:36;103499.84;;;10.68;66.55